sensor_id;sensor_type;location;lat;lon;timestamp;temperature;humidity
22645;DHT22;11489;50.834;6.752;2024-03-08T00:02:17;3.90;93.80
22645;DHT22;11489;50.834;6.752;2024-03-08T00:04:42;3.90;93.60
22645;DHT22;11489;50.834;6.752;2024-03-08T00:07:08;3.90;93.70
22645;DHT22;11489;50.834;6.752;2024-03-08T00:09:34;3.90;93.60
22645;DHT22;11489;50.834;6.752;2024-03-08T00:12:00;3.90;93.80
22645;DHT22;11489;50.834;6.752;2024-03-08T00:14:25;3.80;93.70
22645;DHT22;11489;50.834;6.752;2024-03-08T00:16:51;3.80;93.80
22645;DHT22;11489;50.834;6.752;2024-03-08T00:19:19;3.80;93.90
22645;DHT22;11489;50.834;6.752;2024-03-08T00:21:45;3.70;93.80
22645;DHT22;11489;50.834;6.752;2024-03-08T00:24:11;3.80;93.90
22645;DHT22;11489;50.834;6.752;2024-03-08T00:26:37;3.80;93.80
22645;DHT22;11489;50.834;6.752;2024-03-08T00:29:03;3.70;93.90
22645;DHT22;11489;50.834;6.752;2024-03-08T00:31:29;3.70;94.00
22645;DHT22;11489;50.834;6.752;2024-03-08T00:33:56;3.70;94.00
22645;DHT22;11489;50.834;6.752;2024-03-08T00:36:23;3.70;94.10
22645;DHT22;11489;50.834;6.752;2024-03-08T00:38:48;3.70;94.00
22645;DHT22;11489;50.834;6.752;2024-03-08T00:41:14;3.70;94.00
22645;DHT22;11489;50.834;6.752;2024-03-08T00:43:39;3.60;93.90
22645;DHT22;11489;50.834;6.752;2024-03-08T00:46:05;3.60;93.90
22645;DHT22;11489;50.834;6.752;2024-03-08T00:48:31;3.60;94.00
22645;DHT22;11489;50.834;6.752;2024-03-08T00:50:57;3.60;93.80
22645;DHT22;11489;50.834;6.752;2024-03-08T00:53:23;3.60;93.80
22645;DHT22;11489;50.834;6.752;2024-03-08T00:55:48;3.50;93.80
22645;DHT22;11489;50.834;6.752;2024-03-08T00:58:15;3.50;93.80
22645;DHT22;11489;50.834;6.752;2024-03-08T01:00:40;3.50;93.90
22645;DHT22;11489;50.834;6.752;2024-03-08T01:03:06;3.50;94.00
22645;DHT22;11489;50.834;6.752;2024-03-08T01:05:32;3.40;94.00
22645;DHT22;11489;50.834;6.752;2024-03-08T01:07:59;3.40;94.20
22645;DHT22;11489;50.834;6.752;2024-03-08T01:10:24;3.40;94.10
22645;DHT22;11489;50.834;6.752;2024-03-08T01:12:50;3.40;94.10
22645;DHT22;11489;50.834;6.752;2024-03-08T01:15:16;3.30;94.10
22645;DHT22;11489;50.834;6.752;2024-03-08T01:17:42;3.30;94.10
22645;DHT22;11489;50.834;6.752;2024-03-08T01:20:09;3.30;94.20
22645;DHT22;11489;50.834;6.752;2024-03-08T01:22:38;3.30;94.30
22645;DHT22;11489;50.834;6.752;2024-03-08T01:25:04;3.30;94.30
22645;DHT22;11489;50.834;6.752;2024-03-08T01:27:30;3.30;94.40
22645;DHT22;11489;50.834;6.752;2024-03-08T01:29:56;3.20;94.30
22645;DHT22;11489;50.834;6.752;2024-03-08T01:32:23;3.20;94.30
22645;DHT22;11489;50.834;6.752;2024-03-08T01:34:49;3.20;94.40
22645;DHT22;11489;50.834;6.752;2024-03-08T01:37:15;3.20;94.30
22645;DHT22;11489;50.834;6.752;2024-03-08T01:39:41;3.20;94.40
22645;DHT22;11489;50.834;6.752;2024-03-08T01:42:07;3.20;94.20
22645;DHT22;11489;50.834;6.752;2024-03-08T01:44:32;3.20;94.20
22645;DHT22;11489;50.834;6.752;2024-03-08T01:46:59;3.10;94.00
22645;DHT22;11489;50.834;6.752;2024-03-08T01:49:26;3.10;94.20
22645;DHT22;11489;50.834;6.752;2024-03-08T01:51:54;3.10;94.20
22645;DHT22;11489;50.834;6.752;2024-03-08T01:54:22;3.10;94.20
22645;DHT22;11489;50.834;6.752;2024-03-08T01:56:49;3.00;94.20
22645;DHT22;11489;50.834;6.752;2024-03-08T01:59:15;3.00;94.20
22645;DHT22;11489;50.834;6.752;2024-03-08T02:01:42;3.00;94.30
22645;DHT22;11489;50.834;6.752;2024-03-08T02:04:08;3.00;94.30
22645;DHT22;11489;50.834;6.752;2024-03-08T02:06:34;3.00;94.40
22645;DHT22;11489;50.834;6.752;2024-03-08T02:09:00;3.00;94.30
22645;DHT22;11489;50.834;6.752;2024-03-08T02:11:26;2.90;94.20
22645;DHT22;11489;50.834;6.752;2024-03-08T02:13:52;2.90;94.20
22645;DHT22;11489;50.834;6.752;2024-03-08T02:16:21;2.90;94.20
22645;DHT22;11489;50.834;6.752;2024-03-08T02:18:47;2.80;94.20
22645;DHT22;11489;50.834;6.752;2024-03-08T02:21:14;2.80;94.30
22645;DHT22;11489;50.834;6.752;2024-03-08T02:23:43;2.80;94.40
22645;DHT22;11489;50.834;6.752;2024-03-08T02:26:09;2.80;94.50
22645;DHT22;11489;50.834;6.752;2024-03-08T02:28:35;2.80;94.60
22645;DHT22;11489;50.834;6.752;2024-03-08T02:31:01;2.80;94.50
22645;DHT22;11489;50.834;6.752;2024-03-08T02:33:28;2.80;94.50
22645;DHT22;11489;50.834;6.752;2024-03-08T02:35:54;2.70;94.50
22645;DHT22;11489;50.834;6.752;2024-03-08T02:38:22;2.70;94.40
22645;DHT22;11489;50.834;6.752;2024-03-08T02:40:49;2.70;94.40
22645;DHT22;11489;50.834;6.752;2024-03-08T02:43:17;2.70;94.40
22645;DHT22;11489;50.834;6.752;2024-03-08T02:45:45;2.70;94.50
22645;DHT22;11489;50.834;6.752;2024-03-08T02:48:12;2.60;94.50
22645;DHT22;11489;50.834;6.752;2024-03-08T02:50:38;2.60;94.40
22645;DHT22;11489;50.834;6.752;2024-03-08T02:53:08;2.60;94.50
22645;DHT22;11489;50.834;6.752;2024-03-08T02:55:34;2.60;94.40
22645;DHT22;11489;50.834;6.752;2024-03-08T02:58:02;2.50;94.50
22645;DHT22;11489;50.834;6.752;2024-03-08T03:00:29;2.50;94.40
22645;DHT22;11489;50.834;6.752;2024-03-08T03:02:57;2.50;94.50
22645;DHT22;11489;50.834;6.752;2024-03-08T03:05:23;2.50;94.60
22645;DHT22;11489;50.834;6.752;2024-03-08T03:07:50;2.50;94.50
22645;DHT22;11489;50.834;6.752;2024-03-08T03:10:19;2.50;94.60
22645;DHT22;11489;50.834;6.752;2024-03-08T03:12:47;2.50;94.50
22645;DHT22;11489;50.834;6.752;2024-03-08T03:15:14;2.40;94.60
22645;DHT22;11489;50.834;6.752;2024-03-08T03:17:40;2.40;94.50
22645;DHT22;11489;50.834;6.752;2024-03-08T03:20:07;2.40;94.40
22645;DHT22;11489;50.834;6.752;2024-03-08T03:22:38;2.40;94.90
22645;DHT22;11489;50.834;6.752;2024-03-08T03:25:07;2.40;94.60
22645;DHT22;11489;50.834;6.752;2024-03-08T03:27:33;2.30;94.60
22645;DHT22;11489;50.834;6.752;2024-03-08T03:29:59;2.30;94.60
22645;DHT22;11489;50.834;6.752;2024-03-08T03:32:44;2.30;94.60
22645;DHT22;11489;50.834;6.752;2024-03-08T03:35:16;2.30;94.50
22645;DHT22;11489;50.834;6.752;2024-03-08T03:37:42;2.30;94.70
22645;DHT22;11489;50.834;6.752;2024-03-08T03:40:17;2.30;94.70
22645;DHT22;11489;50.834;6.752;2024-03-08T03:42:44;2.30;94.70
22645;DHT22;11489;50.834;6.752;2024-03-08T03:45:11;2.30;94.80
22645;DHT22;11489;50.834;6.752;2024-03-08T03:47:36;2.20;94.70
22645;DHT22;11489;50.834;6.752;2024-03-08T03:50:05;2.20;94.80
22645;DHT22;11489;50.834;6.752;2024-03-08T03:52:31;2.20;94.70
22645;DHT22;11489;50.834;6.752;2024-03-08T03:54:57;2.20;94.70
22645;DHT22;11489;50.834;6.752;2024-03-08T03:57:23;2.20;94.70
22645;DHT22;11489;50.834;6.752;2024-03-08T03:59:49;2.20;94.60
22645;DHT22;11489;50.834;6.752;2024-03-08T04:02:17;2.20;94.60
22645;DHT22;11489;50.834;6.752;2024-03-08T04:04:42;2.10;94.60
22645;DHT22;11489;50.834;6.752;2024-03-08T04:07:09;2.10;94.60
22645;DHT22;11489;50.834;6.752;2024-03-08T04:09:35;2.10;94.60
22645;DHT22;11489;50.834;6.752;2024-03-08T04:12:01;2.10;94.50
22645;DHT22;11489;50.834;6.752;2024-03-08T04:14:26;2.00;94.60
22645;DHT22;11489;50.834;6.752;2024-03-08T04:16:52;2.00;94.50
22645;DHT22;11489;50.834;6.752;2024-03-08T04:19:18;2.00;94.60
22645;DHT22;11489;50.834;6.752;2024-03-08T04:21:44;2.00;94.60
22645;DHT22;11489;50.834;6.752;2024-03-08T04:24:10;2.00;94.60
22645;DHT22;11489;50.834;6.752;2024-03-08T04:26:36;2.00;94.70
22645;DHT22;11489;50.834;6.752;2024-03-08T04:29:02;1.90;94.80
22645;DHT22;11489;50.834;6.752;2024-03-08T04:31:28;1.90;94.80
22645;DHT22;11489;50.834;6.752;2024-03-08T04:33:56;1.90;94.90
22645;DHT22;11489;50.834;6.752;2024-03-08T04:36:22;1.90;94.90
22645;DHT22;11489;50.834;6.752;2024-03-08T04:38:50;1.90;95.20
22645;DHT22;11489;50.834;6.752;2024-03-08T04:41:17;1.90;95.00
22645;DHT22;11489;50.834;6.752;2024-03-08T04:43:43;1.90;94.90
22645;DHT22;11489;50.834;6.752;2024-03-08T04:46:08;1.90;94.90
22645;DHT22;11489;50.834;6.752;2024-03-08T04:48:34;1.90;94.90
22645;DHT22;11489;50.834;6.752;2024-03-08T04:51:03;1.90;94.90
22645;DHT22;11489;50.834;6.752;2024-03-08T04:53:30;1.90;94.90
22645;DHT22;11489;50.834;6.752;2024-03-08T04:55:57;1.90;95.00
22645;DHT22;11489;50.834;6.752;2024-03-08T04:58:23;1.90;95.10
22645;DHT22;11489;50.834;6.752;2024-03-08T05:00:49;1.90;95.00
22645;DHT22;11489;50.834;6.752;2024-03-08T05:03:16;1.90;95.00
22645;DHT22;11489;50.834;6.752;2024-03-08T05:05:41;1.90;95.00
22645;DHT22;11489;50.834;6.752;2024-03-08T05:08:07;1.90;95.00
22645;DHT22;11489;50.834;6.752;2024-03-08T05:10:33;1.90;95.10
22645;DHT22;11489;50.834;6.752;2024-03-08T05:12:58;1.90;95.10
22645;DHT22;11489;50.834;6.752;2024-03-08T05:15:24;1.90;95.30
22645;DHT22;11489;50.834;6.752;2024-03-08T05:17:50;1.90;95.30
22645;DHT22;11489;50.834;6.752;2024-03-08T05:20:15;1.90;95.30
22645;DHT22;11489;50.834;6.752;2024-03-08T05:22:42;1.90;95.40
22645;DHT22;11489;50.834;6.752;2024-03-08T05:25:08;1.90;95.40
22645;DHT22;11489;50.834;6.752;2024-03-08T05:27:35;2.00;95.30
22645;DHT22;11489;50.834;6.752;2024-03-08T05:30:02;1.90;95.10
22645;DHT22;11489;50.834;6.752;2024-03-08T05:32:29;2.00;95.00
22645;DHT22;11489;50.834;6.752;2024-03-08T05:34:55;1.90;95.00
22645;DHT22;11489;50.834;6.752;2024-03-08T05:37:21;2.00;95.00
22645;DHT22;11489;50.834;6.752;2024-03-08T05:39:47;1.90;95.10
22645;DHT22;11489;50.834;6.752;2024-03-08T05:42:13;1.90;95.10
22645;DHT22;11489;50.834;6.752;2024-03-08T05:44:38;1.90;95.10
22645;DHT22;11489;50.834;6.752;2024-03-08T05:47:06;1.90;95.30
22645;DHT22;11489;50.834;6.752;2024-03-08T05:49:32;1.90;95.20
22645;DHT22;11489;50.834;6.752;2024-03-08T05:51:59;1.90;95.10
22645;DHT22;11489;50.834;6.752;2024-03-08T05:54:25;1.80;95.00
22645;DHT22;11489;50.834;6.752;2024-03-08T05:56:52;1.90;95.00
22645;DHT22;11489;50.834;6.752;2024-03-08T05:59:19;1.90;95.10
22645;DHT22;11489;50.834;6.752;2024-03-08T06:01:45;1.80;95.10
22645;DHT22;11489;50.834;6.752;2024-03-08T06:04:12;1.80;95.10
22645;DHT22;11489;50.834;6.752;2024-03-08T06:06:38;1.80;95.20
22645;DHT22;11489;50.834;6.752;2024-03-08T06:09:03;1.80;95.10
22645;DHT22;11489;50.834;6.752;2024-03-08T06:11:37;1.80;95.10
22645;DHT22;11489;50.834;6.752;2024-03-08T06:14:03;1.80;95.20
22645;DHT22;11489;50.834;6.752;2024-03-08T06:16:29;1.80;95.30
22645;DHT22;11489;50.834;6.752;2024-03-08T06:18:57;1.80;95.20
22645;DHT22;11489;50.834;6.752;2024-03-08T06:21:24;1.80;95.20
22645;DHT22;11489;50.834;6.752;2024-03-08T06:23:53;1.80;95.20
22645;DHT22;11489;50.834;6.752;2024-03-08T06:26:21;1.80;95.30
22645;DHT22;11489;50.834;6.752;2024-03-08T06:28:47;1.80;95.40
22645;DHT22;11489;50.834;6.752;2024-03-08T06:31:13;1.80;95.60
22645;DHT22;11489;50.834;6.752;2024-03-08T06:33:40;1.80;95.60
22645;DHT22;11489;50.834;6.752;2024-03-08T06:36:06;1.80;95.50
22645;DHT22;11489;50.834;6.752;2024-03-08T06:38:32;1.90;95.70
22645;DHT22;11489;50.834;6.752;2024-03-08T06:40:58;1.90;95.80
22645;DHT22;11489;50.834;6.752;2024-03-08T06:43:24;1.90;95.90
22645;DHT22;11489;50.834;6.752;2024-03-08T06:45:55;1.90;96.00
22645;DHT22;11489;50.834;6.752;2024-03-08T06:48:21;2.00;96.00
22645;DHT22;11489;50.834;6.752;2024-03-08T06:50:47;2.00;96.00
22645;DHT22;11489;50.834;6.752;2024-03-08T06:53:13;2.00;96.10
22645;DHT22;11489;50.834;6.752;2024-03-08T06:55:39;2.10;96.20
22645;DHT22;11489;50.834;6.752;2024-03-08T06:58:05;2.10;96.00
22645;DHT22;11489;50.834;6.752;2024-03-08T07:00:32;2.20;96.10
22645;DHT22;11489;50.834;6.752;2024-03-08T07:02:58;2.20;96.10
22645;DHT22;11489;50.834;6.752;2024-03-08T07:05:28;2.20;96.10
22645;DHT22;11489;50.834;6.752;2024-03-08T07:07:54;2.30;96.20
22645;DHT22;11489;50.834;6.752;2024-03-08T07:10:23;2.40;96.10
22645;DHT22;11489;50.834;6.752;2024-03-08T07:12:52;2.40;96.10
22645;DHT22;11489;50.834;6.752;2024-03-08T07:15:21;2.40;96.10
22645;DHT22;11489;50.834;6.752;2024-03-08T07:17:47;2.50;96.10
22645;DHT22;11489;50.834;6.752;2024-03-08T07:20:13;2.50;96.20
22645;DHT22;11489;50.834;6.752;2024-03-08T07:22:41;2.60;96.30
22645;DHT22;11489;50.834;6.752;2024-03-08T07:25:07;2.70;96.30
22645;DHT22;11489;50.834;6.752;2024-03-08T07:27:33;2.70;96.30
22645;DHT22;11489;50.834;6.752;2024-03-08T07:30:05;2.80;96.30
22645;DHT22;11489;50.834;6.752;2024-03-08T07:32:31;2.90;96.40
22645;DHT22;11489;50.834;6.752;2024-03-08T07:34:57;2.90;96.30
22645;DHT22;11489;50.834;6.752;2024-03-08T07:37:23;3.00;96.40
22645;DHT22;11489;50.834;6.752;2024-03-08T07:39:49;3.00;96.50
22645;DHT22;11489;50.834;6.752;2024-03-08T07:42:15;3.10;96.50
22645;DHT22;11489;50.834;6.752;2024-03-08T07:44:42;3.20;96.50
22645;DHT22;11489;50.834;6.752;2024-03-08T07:47:08;3.20;96.50
22645;DHT22;11489;50.834;6.752;2024-03-08T07:49:38;3.30;96.50
22645;DHT22;11489;50.834;6.752;2024-03-08T07:52:04;3.40;96.80
22645;DHT22;11489;50.834;6.752;2024-03-08T07:54:30;3.50;96.50
22645;DHT22;11489;50.834;6.752;2024-03-08T07:56:56;3.50;96.50
22645;DHT22;11489;50.834;6.752;2024-03-08T07:59:22;3.60;96.40
22645;DHT22;11489;50.834;6.752;2024-03-08T08:01:47;3.70;96.50
22645;DHT22;11489;50.834;6.752;2024-03-08T08:04:13;3.70;96.40
22645;DHT22;11489;50.834;6.752;2024-03-08T08:06:43;3.80;96.50
22645;DHT22;11489;50.834;6.752;2024-03-08T08:09:09;3.90;96.50
22645;DHT22;11489;50.834;6.752;2024-03-08T08:11:41;4.00;96.70
22645;DHT22;11489;50.834;6.752;2024-03-08T08:14:09;4.00;96.40
22645;DHT22;11489;50.834;6.752;2024-03-08T08:16:36;4.10;96.30
22645;DHT22;11489;50.834;6.752;2024-03-08T08:19:03;4.10;96.40
22645;DHT22;11489;50.834;6.752;2024-03-08T08:21:36;4.20;96.50
22645;DHT22;11489;50.834;6.752;2024-03-08T08:24:04;4.20;96.50
22645;DHT22;11489;50.834;6.752;2024-03-08T08:26:30;4.30;96.50
22645;DHT22;11489;50.834;6.752;2024-03-08T08:28:56;4.40;96.50
22645;DHT22;11489;50.834;6.752;2024-03-08T08:31:21;4.40;96.50
22645;DHT22;11489;50.834;6.752;2024-03-08T08:33:47;4.50;96.40
22645;DHT22;11489;50.834;6.752;2024-03-08T08:36:17;4.60;96.50
22645;DHT22;11489;50.834;6.752;2024-03-08T08:38:44;4.60;96.40
22645;DHT22;11489;50.834;6.752;2024-03-08T08:41:12;4.70;96.50
22645;DHT22;11489;50.834;6.752;2024-03-08T08:43:39;4.80;96.50
22645;DHT22;11489;50.834;6.752;2024-03-08T08:46:05;4.80;96.40
22645;DHT22;11489;50.834;6.752;2024-03-08T08:48:30;4.90;96.40
22645;DHT22;11489;50.834;6.752;2024-03-08T08:50:56;5.00;96.30
22645;DHT22;11489;50.834;6.752;2024-03-08T08:53:22;5.10;96.30
22645;DHT22;11489;50.834;6.752;2024-03-08T08:55:48;5.10;96.50
22645;DHT22;11489;50.834;6.752;2024-03-08T08:58:13;5.20;96.40
22645;DHT22;11489;50.834;6.752;2024-03-08T09:00:39;5.30;96.50
22645;DHT22;11489;50.834;6.752;2024-03-08T09:03:05;5.40;96.50
22645;DHT22;11489;50.834;6.752;2024-03-08T09:05:32;5.50;96.60
22645;DHT22;11489;50.834;6.752;2024-03-08T09:07:59;5.60;96.70
22645;DHT22;11489;50.834;6.752;2024-03-08T09:10:26;5.80;96.80
22645;DHT22;11489;50.834;6.752;2024-03-08T09:12:53;5.90;97.00
22645;DHT22;11489;50.834;6.752;2024-03-08T09:15:19;6.10;97.00
22645;DHT22;11489;50.834;6.752;2024-03-08T09:17:46;6.20;96.90
22645;DHT22;11489;50.834;6.752;2024-03-08T09:20:13;6.30;96.90
22645;DHT22;11489;50.834;6.752;2024-03-08T09:22:44;6.50;97.10
22645;DHT22;11489;50.834;6.752;2024-03-08T09:25:10;6.60;97.00
22645;DHT22;11489;50.834;6.752;2024-03-08T09:27:35;6.70;97.00
22645;DHT22;11489;50.834;6.752;2024-03-08T09:30:02;6.90;96.90
22645;DHT22;11489;50.834;6.752;2024-03-08T09:32:27;7.00;97.00
22645;DHT22;11489;50.834;6.752;2024-03-08T09:34:53;7.10;97.00
22645;DHT22;11489;50.834;6.752;2024-03-08T09:37:19;7.30;97.00
22645;DHT22;11489;50.834;6.752;2024-03-08T09:39:45;7.50;97.20
22645;DHT22;11489;50.834;6.752;2024-03-08T09:42:11;7.70;97.20
22645;DHT22;11489;50.834;6.752;2024-03-08T09:44:47;7.90;97.30
22645;DHT22;11489;50.834;6.752;2024-03-08T09:47:16;8.10;97.10
22645;DHT22;11489;50.834;6.752;2024-03-08T09:49:43;8.30;97.20
22645;DHT22;11489;50.834;6.752;2024-03-08T09:52:09;8.50;96.90
22645;DHT22;11489;50.834;6.752;2024-03-08T09:54:36;8.80;96.90
22645;DHT22;11489;50.834;6.752;2024-03-08T09:57:04;9.00;96.50
22645;DHT22;11489;50.834;6.752;2024-03-08T09:59:30;9.20;96.60
22645;DHT22;11489;50.834;6.752;2024-03-08T10:02:14;9.40;96.40
22645;DHT22;11489;50.834;6.752;2024-03-08T10:04:41;9.60;95.80
22645;DHT22;11489;50.834;6.752;2024-03-08T10:07:08;9.70;96.10
22645;DHT22;11489;50.834;6.752;2024-03-08T10:09:33;9.90;95.90
22645;DHT22;11489;50.834;6.752;2024-03-08T10:11:59;10.10;96.20
22645;DHT22;11489;50.834;6.752;2024-03-08T10:14:25;10.20;95.80
22645;DHT22;11489;50.834;6.752;2024-03-08T10:16:54;10.40;95.50
22645;DHT22;11489;50.834;6.752;2024-03-08T10:19:20;10.40;95.10
22645;DHT22;11489;50.834;6.752;2024-03-08T10:21:50;10.50;94.90
22645;DHT22;11489;50.834;6.752;2024-03-08T10:24:19;10.50;94.10
22645;DHT22;11489;50.834;6.752;2024-03-08T10:26:45;10.50;94.60
22645;DHT22;11489;50.834;6.752;2024-03-08T10:29:13;10.60;94.40
22645;DHT22;11489;50.834;6.752;2024-03-08T10:31:45;10.60;94.40
22645;DHT22;11489;50.834;6.752;2024-03-08T10:34:11;10.70;94.10
22645;DHT22;11489;50.834;6.752;2024-03-08T10:36:36;10.80;94.60
22645;DHT22;11489;50.834;6.752;2024-03-08T10:39:12;11.00;94.20
22645;DHT22;11489;50.834;6.752;2024-03-08T10:41:44;11.00;93.80
22645;DHT22;11489;50.834;6.752;2024-03-08T10:46:51;11.20;94.30
22645;DHT22;11489;50.834;6.752;2024-03-08T10:49:26;11.40;93.70
22645;DHT22;11489;50.834;6.752;2024-03-08T10:51:56;11.60;93.50
22645;DHT22;11489;50.834;6.752;2024-03-08T10:54:24;11.80;94.00
22645;DHT22;11489;50.834;6.752;2024-03-08T10:56:51;11.90;93.80
22645;DHT22;11489;50.834;6.752;2024-03-08T10:59:18;12.10;94.00
22645;DHT22;11489;50.834;6.752;2024-03-08T11:01:44;12.20;93.80
22645;DHT22;11489;50.834;6.752;2024-03-08T11:04:10;12.30;93.70
22645;DHT22;11489;50.834;6.752;2024-03-08T11:06:41;12.50;93.10
22645;DHT22;11489;50.834;6.752;2024-03-08T11:12:24;12.60;91.20
22645;DHT22;11489;50.834;6.752;2024-03-08T11:14:52;12.60;90.50
22645;DHT22;11489;50.834;6.752;2024-03-08T11:17:47;12.70;92.60
22645;DHT22;11489;50.834;6.752;2024-03-08T11:20:16;12.80;91.40
22645;DHT22;11489;50.834;6.752;2024-03-08T11:22:51;12.90;92.90
22645;DHT22;11489;50.834;6.752;2024-03-08T11:25:31;13.00;91.60
22645;DHT22;11489;50.834;6.752;2024-03-08T11:28:27;13.10;92.30
22645;DHT22;11489;50.834;6.752;2024-03-08T11:33:28;13.10;91.90
22645;DHT22;11489;50.834;6.752;2024-03-08T11:36:12;13.10;92.20
22645;DHT22;11489;50.834;6.752;2024-03-08T11:38:45;13.10;91.10
22645;DHT22;11489;50.834;6.752;2024-03-08T11:41:20;13.10;91.70
22645;DHT22;11489;50.834;6.752;2024-03-08T11:43:47;13.10;92.00
22645;DHT22;11489;50.834;6.752;2024-03-08T11:46:14;13.10;92.10
22645;DHT22;11489;50.834;6.752;2024-03-08T11:48:41;13.10;91.70
22645;DHT22;11489;50.834;6.752;2024-03-08T11:51:08;13.10;91.80
22645;DHT22;11489;50.834;6.752;2024-03-08T11:53:34;13.10;91.90
22645;DHT22;11489;50.834;6.752;2024-03-08T11:56:11;13.10;91.70
22645;DHT22;11489;50.834;6.752;2024-03-08T11:58:38;13.20;90.60
22645;DHT22;11489;50.834;6.752;2024-03-08T12:01:09;13.20;91.90
22645;DHT22;11489;50.834;6.752;2024-03-08T12:03:41;13.30;91.60
22645;DHT22;11489;50.834;6.752;2024-03-08T12:06:13;13.30;91.00
22645;DHT22;11489;50.834;6.752;2024-03-08T12:08:39;13.30;91.00
22645;DHT22;11489;50.834;6.752;2024-03-08T12:11:05;13.40;91.60
22645;DHT22;11489;50.834;6.752;2024-03-08T12:13:32;13.40;91.40
22645;DHT22;11489;50.834;6.752;2024-03-08T12:16:03;13.40;91.00
22645;DHT22;11489;50.834;6.752;2024-03-08T12:18:37;13.30;90.90
22645;DHT22;11489;50.834;6.752;2024-03-08T12:21:12;13.30;90.40
22645;DHT22;11489;50.834;6.752;2024-03-08T12:23:46;13.20;89.00
22645;DHT22;11489;50.834;6.752;2024-03-08T12:26:24;13.10;90.70
22645;DHT22;11489;50.834;6.752;2024-03-08T12:28:52;13.10;88.50
22645;DHT22;11489;50.834;6.752;2024-03-08T12:31:18;13.10;91.00
22645;DHT22;11489;50.834;6.752;2024-03-08T12:33:55;13.20;90.90
22645;DHT22;11489;50.834;6.752;2024-03-08T12:36:24;13.20;90.40
22645;DHT22;11489;50.834;6.752;2024-03-08T12:38:51;13.30;90.80
22645;DHT22;11489;50.834;6.752;2024-03-08T12:41:20;13.30;90.90
22645;DHT22;11489;50.834;6.752;2024-03-08T12:43:47;13.40;90.90
22645;DHT22;11489;50.834;6.752;2024-03-08T12:46:17;13.40;90.90
22645;DHT22;11489;50.834;6.752;2024-03-08T12:48:45;13.50;89.90
22645;DHT22;11489;50.834;6.752;2024-03-08T12:51:16;13.50;90.40
22645;DHT22;11489;50.834;6.752;2024-03-08T12:53:43;13.50;90.00
22645;DHT22;11489;50.834;6.752;2024-03-08T12:56:32;13.50;90.50
22645;DHT22;11489;50.834;6.752;2024-03-08T12:58:59;13.60;87.50
22645;DHT22;11489;50.834;6.752;2024-03-08T13:01:26;13.50;90.10
22645;DHT22;11489;50.834;6.752;2024-03-08T13:03:57;13.50;90.00
22645;DHT22;11489;50.834;6.752;2024-03-08T13:06:24;13.50;90.00
22645;DHT22;11489;50.834;6.752;2024-03-08T13:08:51;13.40;89.70
22645;DHT22;11489;50.834;6.752;2024-03-08T13:11:22;13.40;89.20
22645;DHT22;11489;50.834;6.752;2024-03-08T13:13:49;13.40;89.70
22645;DHT22;11489;50.834;6.752;2024-03-08T13:16:15;13.30;89.20
22645;DHT22;11489;50.834;6.752;2024-03-08T13:18:43;13.30;88.80
22645;DHT22;11489;50.834;6.752;2024-03-08T13:21:09;13.20;88.60
22645;DHT22;11489;50.834;6.752;2024-03-08T13:23:37;13.20;88.50
22645;DHT22;11489;50.834;6.752;2024-03-08T13:26:06;13.10;89.00
22645;DHT22;11489;50.834;6.752;2024-03-08T13:28:32;13.10;88.90
22645;DHT22;11489;50.834;6.752;2024-03-08T13:31:04;13.10;88.80
22645;DHT22;11489;50.834;6.752;2024-03-08T13:33:33;13.10;88.70
22645;DHT22;11489;50.834;6.752;2024-03-08T13:36:02;13.10;89.00
22645;DHT22;11489;50.834;6.752;2024-03-08T13:38:28;13.20;89.20
22645;DHT22;11489;50.834;6.752;2024-03-08T13:40:54;13.20;89.00
22645;DHT22;11489;50.834;6.752;2024-03-08T13:43:20;13.20;88.90
22645;DHT22;11489;50.834;6.752;2024-03-08T13:45:46;13.20;88.40
22645;DHT22;11489;50.834;6.752;2024-03-08T13:48:11;13.20;89.10
22645;DHT22;11489;50.834;6.752;2024-03-08T13:50:38;13.20;88.10
22645;DHT22;11489;50.834;6.752;2024-03-08T13:53:05;13.20;88.10
22645;DHT22;11489;50.834;6.752;2024-03-08T13:55:30;13.10;87.70
22645;DHT22;11489;50.834;6.752;2024-03-08T13:57:57;13.10;87.30
22645;DHT22;11489;50.834;6.752;2024-03-08T14:00:22;13.00;86.90
22645;DHT22;11489;50.834;6.752;2024-03-08T14:02:51;13.00;87.00
22645;DHT22;11489;50.834;6.752;2024-03-08T14:05:17;13.00;86.80
22645;DHT22;11489;50.834;6.752;2024-03-08T14:07:46;12.90;86.90
22645;DHT22;11489;50.834;6.752;2024-03-08T14:10:15;12.90;86.40
22645;DHT22;11489;50.834;6.752;2024-03-08T14:12:41;12.80;86.50
22645;DHT22;11489;50.834;6.752;2024-03-08T14:15:09;12.80;86.80
22645;DHT22;11489;50.834;6.752;2024-03-08T14:17:36;12.80;86.50
22645;DHT22;11489;50.834;6.752;2024-03-08T14:20:03;12.80;86.60
22645;DHT22;11489;50.834;6.752;2024-03-08T14:22:29;12.90;86.40
22645;DHT22;11489;50.834;6.752;2024-03-08T14:24:57;12.90;86.90
22645;DHT22;11489;50.834;6.752;2024-03-08T14:27:23;13.00;87.20
22645;DHT22;11489;50.834;6.752;2024-03-08T14:29:49;13.00;87.00
22645;DHT22;11489;50.834;6.752;2024-03-08T14:32:15;13.00;86.80
22645;DHT22;11489;50.834;6.752;2024-03-08T14:34:41;13.00;86.50
22645;DHT22;11489;50.834;6.752;2024-03-08T14:37:07;13.10;87.10
22645;DHT22;11489;50.834;6.752;2024-03-08T14:39:37;13.10;85.80
22645;DHT22;11489;50.834;6.752;2024-03-08T14:42:03;13.10;86.40
22645;DHT22;11489;50.834;6.752;2024-03-08T14:44:31;13.10;86.00
22645;DHT22;11489;50.834;6.752;2024-03-08T14:47:00;13.10;85.60
22645;DHT22;11489;50.834;6.752;2024-03-08T14:49:27;13.10;86.30
22645;DHT22;11489;50.834;6.752;2024-03-08T14:51:55;13.10;86.30
22645;DHT22;11489;50.834;6.752;2024-03-08T14:54:24;13.20;86.20
22645;DHT22;11489;50.834;6.752;2024-03-08T14:56:50;13.20;85.80
22645;DHT22;11489;50.834;6.752;2024-03-08T14:59:22;13.20;85.80
22645;DHT22;11489;50.834;6.752;2024-03-08T15:01:48;13.20;85.10
22645;DHT22;11489;50.834;6.752;2024-03-08T15:04:14;13.10;84.90
22645;DHT22;11489;50.834;6.752;2024-03-08T15:06:41;13.10;85.10
22645;DHT22;11489;50.834;6.752;2024-03-08T15:09:08;13.00;84.80
22645;DHT22;11489;50.834;6.752;2024-03-08T15:11:41;13.00;85.10
22645;DHT22;11489;50.834;6.752;2024-03-08T15:14:08;13.00;85.10
22645;DHT22;11489;50.834;6.752;2024-03-08T15:16:40;12.90;85.50
22645;DHT22;11489;50.834;6.752;2024-03-08T15:19:08;12.90;84.50
22645;DHT22;11489;50.834;6.752;2024-03-08T15:21:34;12.90;85.50
22645;DHT22;11489;50.834;6.752;2024-03-08T15:24:00;12.90;85.40
22645;DHT22;11489;50.834;6.752;2024-03-08T15:26:28;12.90;85.20
22645;DHT22;11489;50.834;6.752;2024-03-08T15:28:56;12.90;85.40
22645;DHT22;11489;50.834;6.752;2024-03-08T15:31:22;12.90;84.80
22645;DHT22;11489;50.834;6.752;2024-03-08T15:33:50;12.90;85.50
22645;DHT22;11489;50.834;6.752;2024-03-08T15:36:32;12.90;85.60
22645;DHT22;11489;50.834;6.752;2024-03-08T15:38:59;12.90;85.80
22645;DHT22;11489;50.834;6.752;2024-03-08T15:41:26;12.90;86.10
22645;DHT22;11489;50.834;6.752;2024-03-08T15:43:55;12.90;86.10
22645;DHT22;11489;50.834;6.752;2024-03-08T15:46:21;12.90;86.10
22645;DHT22;11489;50.834;6.752;2024-03-08T15:48:48;12.90;85.80
22645;DHT22;11489;50.834;6.752;2024-03-08T15:51:15;12.90;86.10